sensor_id;sensor_type;location;lat;lon;timestamp;pressure;altitude;pressure_sealevel;temperature;humidity
81397;BME280;70852;49.908;8.126;2023-12-29T00:02:06;100149.63;;;7.13;88.50
81397;BME280;70852;49.908;8.126;2023-12-29T00:04:33;100148.38;;;7.05;88.45
81397;BME280;70852;49.908;8.126;2023-12-29T00:06:59;100154.97;;;7.04;88.37
81397;BME280;70852;49.908;8.126;2023-12-29T00:09:26;100150.31;;;7.05;88.04
81397;BME280;70852;49.908;8.126;2023-12-29T00:11:54;100157.84;;;7.13;87.52
81397;BME280;70852;49.908;8.126;2023-12-29T00:14:21;100147.69;;;7.13;87.84
81397;BME280;70852;49.908;8.126;2023-12-29T00:16:47;100139.56;;;7.08;87.20
81397;BME280;70852;49.908;8.126;2023-12-29T00:19:12;100154.16;;;7.04;87.54
81397;BME280;70852;49.908;8.126;2023-12-29T00:21:38;100147.19;;;6.92;87.97
81397;BME280;70852;49.908;8.126;2023-12-29T00:24:05;100148.94;;;6.88;88.13
81397;BME280;70852;49.908;8.126;2023-12-29T00:26:31;100141.88;;;6.82;88.58
81397;BME280;70852;49.908;8.126;2023-12-29T00:28:56;100136.00;;;6.89;88.61
81397;BME280;70852;49.908;8.126;2023-12-29T00:31:26;100125.25;;;6.92;88.31
81397;BME280;70852;49.908;8.126;2023-12-29T00:33:56;100126.28;;;6.96;88.07
81397;BME280;70852;49.908;8.126;2023-12-29T00:36:24;100131.78;;;6.96;87.94
81397;BME280;70852;49.908;8.126;2023-12-29T00:38:52;100130.97;;;6.96;87.90
81397;BME280;70852;49.908;8.126;2023-12-29T00:41:17;100115.38;;;6.91;88.54
81397;BME280;70852;49.908;8.126;2023-12-29T00:43:42;100115.88;;;6.93;88.63
81397;BME280;70852;49.908;8.126;2023-12-29T00:46:10;100105.66;;;6.99;88.29
81397;BME280;70852;49.908;8.126;2023-12-29T00:48:35;100103.34;;;7.06;87.42
81397;BME280;70852;49.908;8.126;2023-12-29T00:51:01;100102.00;;;7.04;87.51
81397;BME280;70852;49.908;8.126;2023-12-29T00:53:27;100104.28;;;7.15;86.89
81397;BME280;70852;49.908;8.126;2023-12-29T00:55:57;100107.59;;;7.12;86.58
81397;BME280;70852;49.908;8.126;2023-12-29T00:58:22;100109.84;;;7.10;86.86
81397;BME280;70852;49.908;8.126;2023-12-29T01:00:52;100110.97;;;7.09;86.76
81397;BME280;70852;49.908;8.126;2023-12-29T01:03:17;100110.59;;;7.16;85.64
81397;BME280;70852;49.908;8.126;2023-12-29T01:05:45;100108.38;;;7.31;84.50
81397;BME280;70852;49.908;8.126;2023-12-29T01:08:13;100109.88;;;7.24;84.70
81397;BME280;70852;49.908;8.126;2023-12-29T01:10:41;100109.75;;;7.15;85.09
81397;BME280;70852;49.908;8.126;2023-12-29T01:13:08;100108.44;;;7.13;85.22
81397;BME280;70852;49.908;8.126;2023-12-29T01:15:33;100103.16;;;7.16;84.82
81397;BME280;70852;49.908;8.126;2023-12-29T01:17:59;100105.81;;;7.21;84.53
81397;BME280;70852;49.908;8.126;2023-12-29T01:20:26;100097.19;;;7.28;84.00
81397;BME280;70852;49.908;8.126;2023-12-29T01:22:52;100083.22;;;7.24;83.83
81397;BME280;70852;49.908;8.126;2023-12-29T01:25:17;100082.34;;;7.29;83.36
81397;BME280;70852;49.908;8.126;2023-12-29T01:27:45;100077.22;;;7.22;83.50
81397;BME280;70852;49.908;8.126;2023-12-29T01:30:13;100082.38;;;7.10;84.43
81397;BME280;70852;49.908;8.126;2023-12-29T01:32:41;100079.84;;;7.14;83.50
81397;BME280;70852;49.908;8.126;2023-12-29T01:35:08;100081.09;;;7.21;82.74
81397;BME280;70852;49.908;8.126;2023-12-29T01:37:33;100076.41;;;7.22;82.38
81397;BME280;70852;49.908;8.126;2023-12-29T01:40:01;100080.19;;;7.26;82.47
81397;BME280;70852;49.908;8.126;2023-12-29T01:42:29;100081.59;;;7.23;82.09
81397;BME280;70852;49.908;8.126;2023-12-29T01:44:59;100083.97;;;7.30;81.19
81397;BME280;70852;49.908;8.126;2023-12-29T01:47:24;100089.88;;;7.37;80.65
81397;BME280;70852;49.908;8.126;2023-12-29T01:49:50;100088.94;;;7.42;80.47
81397;BME280;70852;49.908;8.126;2023-12-29T01:52:20;100092.84;;;7.41;80.86
81397;BME280;70852;49.908;8.126;2023-12-29T01:54:47;100085.50;;;7.36;80.86
81397;BME280;70852;49.908;8.126;2023-12-29T01:57:14;100093.22;;;7.34;81.34
81397;BME280;70852;49.908;8.126;2023-12-29T01:59:42;100089.13;;;7.31;81.13
81397;BME280;70852;49.908;8.126;2023-12-29T02:02:13;100071.84;;;7.31;81.34
81397;BME280;70852;49.908;8.126;2023-12-29T02:04:41;100064.00;;;7.24;81.92
81397;BME280;70852;49.908;8.126;2023-12-29T02:07:09;100062.06;;;7.25;82.20
81397;BME280;70852;49.908;8.126;2023-12-29T02:09:37;100064.22;;;7.28;82.21
81397;BME280;70852;49.908;8.126;2023-12-29T02:12:03;100057.22;;;7.35;82.35
81397;BME280;70852;49.908;8.126;2023-12-29T02:14:30;100061.28;;;7.38;82.51
81397;BME280;70852;49.908;8.126;2023-12-29T02:17:01;100052.03;;;7.48;81.73
81397;BME280;70852;49.908;8.126;2023-12-29T02:19:44;100045.81;;;7.56;81.46
81397;BME280;70852;49.908;8.126;2023-12-29T02:22:14;100054.59;;;7.58;81.35
81397;BME280;70852;49.908;8.126;2023-12-29T02:24:46;100051.53;;;7.59;81.41
81397;BME280;70852;49.908;8.126;2023-12-29T02:30:09;100053.56;;;7.67;81.67
81397;BME280;70852;49.908;8.126;2023-12-29T02:32:39;100050.59;;;7.64;81.75
81397;BME280;70852;49.908;8.126;2023-12-29T02:35:09;100042.06;;;7.79;81.06
81397;BME280;70852;49.908;8.126;2023-12-29T02:37:36;100050.00;;;7.81;80.74
81397;BME280;70852;49.908;8.126;2023-12-29T02:40:02;100054.16;;;7.92;79.98
81397;BME280;70852;49.908;8.126;2023-12-29T02:42:30;100063.63;;;7.99;79.46
81397;BME280;70852;49.908;8.126;2023-12-29T02:44:58;100068.44;;;7.94;79.62
81397;BME280;70852;49.908;8.126;2023-12-29T02:47:26;100077.38;;;7.86;80.21
81397;BME280;70852;49.908;8.126;2023-12-29T02:49:54;100076.69;;;7.80;80.34
81397;BME280;70852;49.908;8.126;2023-12-29T02:52:22;100072.28;;;7.79;80.33
81397;BME280;70852;49.908;8.126;2023-12-29T02:54:47;100064.75;;;7.85;80.15
81397;BME280;70852;49.908;8.126;2023-12-29T02:57:13;100067.31;;;7.81;80.37
81397;BME280;70852;49.908;8.126;2023-12-29T02:59:40;100065.69;;;7.80;80.53
81397;BME280;70852;49.908;8.126;2023-12-29T03:02:07;100062.13;;;7.80;80.60
81397;BME280;70852;49.908;8.126;2023-12-29T03:04:33;100077.28;;;7.77;80.38
81397;BME280;70852;49.908;8.126;2023-12-29T03:07:03;100072.81;;;7.81;80.44
81397;BME280;70852;49.908;8.126;2023-12-29T03:09:31;100081.97;;;7.77;80.24
81397;BME280;70852;49.908;8.126;2023-12-29T03:11:56;100066.81;;;7.79;79.92
81397;BME280;70852;49.908;8.126;2023-12-29T03:14:21;100065.56;;;7.85;79.50
81397;BME280;70852;49.908;8.126;2023-12-29T03:16:46;100058.13;;;7.86;79.85
81397;BME280;70852;49.908;8.126;2023-12-29T03:19:17;100057.03;;;7.73;80.04
81397;BME280;70852;49.908;8.126;2023-12-29T03:21:42;100057.34;;;7.71;80.17
81397;BME280;70852;49.908;8.126;2023-12-29T03:24:10;100051.84;;;7.71;79.99
81397;BME280;70852;49.908;8.126;2023-12-29T03:26:37;100060.19;;;7.66;80.35
81397;BME280;70852;49.908;8.126;2023-12-29T03:29:03;100053.69;;;7.62;80.54
81397;BME280;70852;49.908;8.126;2023-12-29T03:31:30;100045.81;;;7.56;80.88
81397;BME280;70852;49.908;8.126;2023-12-29T03:33:57;100037.56;;;7.56;81.08
81397;BME280;70852;49.908;8.126;2023-12-29T03:36:25;100042.69;;;7.49;81.06
81397;BME280;70852;49.908;8.126;2023-12-29T03:38:50;100044.59;;;7.48;81.28
81397;BME280;70852;49.908;8.126;2023-12-29T03:41:18;100024.16;;;7.41;81.79
81397;BME280;70852;49.908;8.126;2023-12-29T03:43:44;100034.00;;;7.42;81.75
81397;BME280;70852;49.908;8.126;2023-12-29T03:46:19;100032.81;;;7.48;81.65
81397;BME280;70852;49.908;8.126;2023-12-29T03:48:49;100031.25;;;7.42;81.83
81397;BME280;70852;49.908;8.126;2023-12-29T03:51:15;100017.63;;;7.37;82.17
81397;BME280;70852;49.908;8.126;2023-12-29T03:53:45;100022.72;;;7.43;81.89
81397;BME280;70852;49.908;8.126;2023-12-29T03:56:15;100008.06;;;7.48;81.73
81397;BME280;70852;49.908;8.126;2023-12-29T03:58:41;100014.47;;;7.43;81.87
81397;BME280;70852;49.908;8.126;2023-12-29T04:01:13;100011.72;;;7.43;82.07
81397;BME280;70852;49.908;8.126;2023-12-29T04:03:39;100015.81;;;7.46;81.99
81397;BME280;70852;49.908;8.126;2023-12-29T04:06:05;100018.84;;;7.44;82.05
81397;BME280;70852;49.908;8.126;2023-12-29T04:08:37;100022.22;;;7.41;82.43
81397;BME280;70852;49.908;8.126;2023-12-29T04:11:05;100012.13;;;7.37;82.58
81397;BME280;70852;49.908;8.126;2023-12-29T04:13:31;100008.88;;;7.34;82.91
81397;BME280;70852;49.908;8.126;2023-12-29T04:15:58;100004.72;;;7.37;82.90
81397;BME280;70852;49.908;8.126;2023-12-29T04:18:24;100011.84;;;7.38;83.00
81397;BME280;70852;49.908;8.126;2023-12-29T04:20:50;100013.66;;;7.43;82.90
81397;BME280;70852;49.908;8.126;2023-12-29T04:23:18;100015.72;;;7.51;82.56
81397;BME280;70852;49.908;8.126;2023-12-29T04:25:46;100009.69;;;7.49;82.53
81397;BME280;70852;49.908;8.126;2023-12-29T04:28:11;100003.19;;;7.45;82.87
81397;BME280;70852;49.908;8.126;2023-12-29T04:30:36;100011.41;;;7.45;82.83
81397;BME280;70852;49.908;8.126;2023-12-29T04:33:04;100011.34;;;7.50;82.33
81397;BME280;70852;49.908;8.126;2023-12-29T04:35:29;100015.09;;;7.54;82.08
81397;BME280;70852;49.908;8.126;2023-12-29T04:37:55;100019.75;;;7.53;81.86
81397;BME280;70852;49.908;8.126;2023-12-29T04:40:20;100008.91;;;7.62;81.10
81397;BME280;70852;49.908;8.126;2023-12-29T04:42:45;100028.22;;;7.70;80.68
81397;BME280;70852;49.908;8.126;2023-12-29T04:45:13;100035.84;;;7.73;80.37
81397;BME280;70852;49.908;8.126;2023-12-29T04:47:38;100030.97;;;7.70;80.37
81397;BME280;70852;49.908;8.126;2023-12-29T04:50:04;100037.88;;;7.68;80.21
81397;BME280;70852;49.908;8.126;2023-12-29T04:52:33;100020.38;;;7.64;80.28
81397;BME280;70852;49.908;8.126;2023-12-29T04:55:01;100009.59;;;7.67;80.18
81397;BME280;70852;49.908;8.126;2023-12-29T04:57:26;100010.91;;;7.70;79.56
81397;BME280;70852;49.908;8.126;2023-12-29T04:59:51;100002.47;;;7.66;79.87
81397;BME280;70852;49.908;8.126;2023-12-29T05:02:17;100002.75;;;7.65;79.93
81397;BME280;70852;49.908;8.126;2023-12-29T05:04:44;100010.91;;;7.56;80.01
81397;BME280;70852;49.908;8.126;2023-12-29T05:07:11;100005.13;;;7.58;79.95
81397;BME280;70852;49.908;8.126;2023-12-29T05:09:41;100017.22;;;7.57;79.77
81397;BME280;70852;49.908;8.126;2023-12-29T05:12:09;100015.72;;;7.51;80.22
81397;BME280;70852;49.908;8.126;2023-12-29T05:14:34;100013.06;;;7.46;80.35
81397;BME280;70852;49.908;8.126;2023-12-29T05:17:00;100010.22;;;7.51;80.09
81397;BME280;70852;49.908;8.126;2023-12-29T05:19:25;99998.00;;;7.57;79.82
81397;BME280;70852;49.908;8.126;2023-12-29T05:21:50;100011.13;;;7.60;80.14
81397;BME280;70852;49.908;8.126;2023-12-29T05:24:17;99993.00;;;7.59;80.16
81397;BME280;70852;49.908;8.126;2023-12-29T05:26:42;100000.94;;;7.60;80.37
81397;BME280;70852;49.908;8.126;2023-12-29T05:29:07;99987.81;;;7.57;80.25
81397;BME280;70852;49.908;8.126;2023-12-29T05:31:35;99994.72;;;7.55;80.75
81397;BME280;70852;49.908;8.126;2023-12-29T05:34:00;99999.63;;;7.58;80.64
81397;BME280;70852;49.908;8.126;2023-12-29T05:36:26;99993.53;;;7.61;80.66
81397;BME280;70852;49.908;8.126;2023-12-29T05:38:51;99994.81;;;7.63;80.71
81397;BME280;70852;49.908;8.126;2023-12-29T05:41:16;99984.53;;;7.69;81.12
81397;BME280;70852;49.908;8.126;2023-12-29T05:43:42;99985.88;;;7.71;80.74
81397;BME280;70852;49.908;8.126;2023-12-29T05:46:11;99982.91;;;7.68;80.93
81397;BME280;70852;49.908;8.126;2023-12-29T05:48:40;99982.81;;;7.73;80.92
81397;BME280;70852;49.908;8.126;2023-12-29T05:51:09;99989.00;;;7.79;80.99
81397;BME280;70852;49.908;8.126;2023-12-29T05:53:35;99988.59;;;7.85;80.67
81397;BME280;70852;49.908;8.126;2023-12-29T05:56:03;99993.03;;;7.95;80.69
81397;BME280;70852;49.908;8.126;2023-12-29T05:58:33;99993.84;;;8.09;80.38
81397;BME280;70852;49.908;8.126;2023-12-29T06:01:01;99988.81;;;8.25;79.86
81397;BME280;70852;49.908;8.126;2023-12-29T06:03:27;99977.50;;;8.26;79.98
81397;BME280;70852;49.908;8.126;2023-12-29T06:05:53;99974.84;;;8.35;79.75
81397;BME280;70852;49.908;8.126;2023-12-29T06:08:18;99967.06;;;8.37;79.56
81397;BME280;70852;49.908;8.126;2023-12-29T06:10:46;99978.06;;;8.37;79.86
81397;BME280;70852;49.908;8.126;2023-12-29T06:13:14;99979.53;;;8.34;80.12
81397;BME280;70852;49.908;8.126;2023-12-29T06:15:40;99970.16;;;8.35;80.01
81397;BME280;70852;49.908;8.126;2023-12-29T06:18:07;99981.53;;;8.29;80.47
81397;BME280;70852;49.908;8.126;2023-12-29T06:20:35;99982.19;;;8.26;80.49
81397;BME280;70852;49.908;8.126;2023-12-29T06:23:01;99981.22;;;8.30;80.43
81397;BME280;70852;49.908;8.126;2023-12-29T06:25:28;99988.28;;;8.36;80.38
81397;BME280;70852;49.908;8.126;2023-12-29T06:27:54;99982.13;;;8.39;80.46
81397;BME280;70852;49.908;8.126;2023-12-29T06:30:22;99987.22;;;8.46;80.18
81397;BME280;70852;49.908;8.126;2023-12-29T06:32:52;99983.66;;;8.46;80.38
81397;BME280;70852;49.908;8.126;2023-12-29T06:35:20;99990.03;;;8.55;80.04
81397;BME280;70852;49.908;8.126;2023-12-29T06:37:45;99990.41;;;8.62;79.69
81397;BME280;70852;49.908;8.126;2023-12-29T06:40:13;99985.59;;;8.67;79.74
81397;BME280;70852;49.908;8.126;2023-12-29T06:42:40;99991.22;;;8.62;79.96
81397;BME280;70852;49.908;8.126;2023-12-29T06:45:11;99980.47;;;8.52;80.55
81397;BME280;70852;49.908;8.126;2023-12-29T06:47:36;99981.88;;;8.50;80.48
81397;BME280;70852;49.908;8.126;2023-12-29T06:50:04;99989.97;;;8.46;80.60
81397;BME280;70852;49.908;8.126;2023-12-29T06:52:29;99987.59;;;8.53;80.42
81397;BME280;70852;49.908;8.126;2023-12-29T06:55:00;99994.41;;;8.56;80.37
81397;BME280;70852;49.908;8.126;2023-12-29T06:57:28;99987.09;;;8.51;80.32
81397;BME280;70852;49.908;8.126;2023-12-29T06:59:53;99992.78;;;8.55;80.75
81397;BME280;70852;49.908;8.126;2023-12-29T07:02:23;99988.47;;;8.62;80.23
81397;BME280;70852;49.908;8.126;2023-12-29T07:04:51;99981.72;;;8.68;79.93
81397;BME280;70852;49.908;8.126;2023-12-29T07:07:16;99991.91;;;8.68;80.48
81397;BME280;70852;49.908;8.126;2023-12-29T07:09:44;99995.84;;;8.75;80.18
81397;BME280;70852;49.908;8.126;2023-12-29T07:12:09;100000.91;;;8.82;79.61
81397;BME280;70852;49.908;8.126;2023-12-29T07:14:37;99993.97;;;8.85;79.55
81397;BME280;70852;49.908;8.126;2023-12-29T07:17:07;99992.00;;;8.85;79.86
81397;BME280;70852;49.908;8.126;2023-12-29T07:19:32;100000.91;;;8.82;80.04
81397;BME280;70852;49.908;8.126;2023-12-29T07:22:04;100003.34;;;8.84;79.89
81397;BME280;70852;49.908;8.126;2023-12-29T07:24:32;100015.19;;;8.84;80.14
81397;BME280;70852;49.908;8.126;2023-12-29T07:26:57;100024.88;;;8.81;80.01
81397;BME280;70852;49.908;8.126;2023-12-29T07:29:27;100005.63;;;8.90;79.50
81397;BME280;70852;49.908;8.126;2023-12-29T07:31:55;100001.75;;;8.91;79.49
81397;BME280;70852;49.908;8.126;2023-12-29T07:34:22;100010.38;;;8.90;79.71
81397;BME280;70852;49.908;8.126;2023-12-29T07:36:48;100011.50;;;8.89;79.40
81397;BME280;70852;49.908;8.126;2023-12-29T07:39:13;100010.53;;;8.93;79.33
81397;BME280;70852;49.908;8.126;2023-12-29T07:41:40;100017.00;;;8.89;79.24
81397;BME280;70852;49.908;8.126;2023-12-29T07:44:08;100014.09;;;8.94;79.25
81397;BME280;70852;49.908;8.126;2023-12-29T07:46:38;100019.28;;;8.95;78.73
81397;BME280;70852;49.908;8.126;2023-12-29T07:49:06;100024.59;;;8.92;79.21
81397;BME280;70852;49.908;8.126;2023-12-29T07:51:34;100025.31;;;8.97;78.54
81397;BME280;70852;49.908;8.126;2023-12-29T07:54:02;100033.25;;;8.99;78.83
81397;BME280;70852;49.908;8.126;2023-12-29T07:56:27;100030.97;;;9.01;78.14
81397;BME280;70852;49.908;8.126;2023-12-29T07:58:53;100029.72;;;9.07;78.45
81397;BME280;70852;49.908;8.126;2023-12-29T08:01:22;100031.69;;;9.06;78.22
81397;BME280;70852;49.908;8.126;2023-12-29T08:03:50;100035.25;;;9.07;77.96
81397;BME280;70852;49.908;8.126;2023-12-29T08:06:15;100035.44;;;9.10;77.56
81397;BME280;70852;49.908;8.126;2023-12-29T08:08:41;100035.75;;;9.09;77.81
81397;BME280;70852;49.908;8.126;2023-12-29T08:11:15;100029.44;;;9.08;77.45
81397;BME280;70852;49.908;8.126;2023-12-29T08:13:46;100027.34;;;9.14;77.64
81397;BME280;70852;49.908;8.126;2023-12-29T08:16:12;100021.72;;;9.19;77.25
81397;BME280;70852;49.908;8.126;2023-12-29T08:18:37;100031.59;;;9.20;76.76
81397;BME280;70852;49.908;8.126;2023-12-29T08:21:03;100029.16;;;9.18;77.23
81397;BME280;70852;49.908;8.126;2023-12-29T08:23:32;100020.59;;;9.20;76.64
81397;BME280;70852;49.908;8.126;2023-12-29T08:26:02;100028.88;;;9.29;76.65
81397;BME280;70852;49.908;8.126;2023-12-29T08:28:28;100029.00;;;9.24;77.30
81397;BME280;70852;49.908;8.126;2023-12-29T08:30:53;100027.56;;;9.26;76.46
81397;BME280;70852;49.908;8.126;2023-12-29T08:33:18;100032.75;;;9.28;76.48
81397;BME280;70852;49.908;8.126;2023-12-29T08:35:46;100036.84;;;9.30;76.64
81397;BME280;70852;49.908;8.126;2023-12-29T08:38:12;100030.81;;;9.28;76.68
81397;BME280;70852;49.908;8.126;2023-12-29T08:40:37;100031.94;;;9.27;76.74
81397;BME280;70852;49.908;8.126;2023-12-29T08:43:05;100025.31;;;9.28;76.62
81397;BME280;70852;49.908;8.126;2023-12-29T08:45:30;100025.81;;;9.30;76.58
81397;BME280;70852;49.908;8.126;2023-12-29T08:47:55;100017.91;;;9.37;76.06
81397;BME280;70852;49.908;8.126;2023-12-29T08:50:21;100028.28;;;9.40;76.32
81397;BME280;70852;49.908;8.126;2023-12-29T08:52:47;100021.97;;;9.40;76.07
81397;BME280;70852;49.908;8.126;2023-12-29T08:55:12;100021.16;;;9.39;76.43
81397;BME280;70852;49.908;8.126;2023-12-29T08:57:42;100018.91;;;9.41;76.93
81397;BME280;70852;49.908;8.126;2023-12-29T09:00:08;100024.25;;;9.46;76.55
81397;BME280;70852;49.908;8.126;2023-12-29T09:02:35;100029.31;;;9.53;75.79
81397;BME280;70852;49.908;8.126;2023-12-29T09:05:01;100030.59;;;9.55;76.34
81397;BME280;70852;49.908;8.126;2023-12-29T09:07:26;100031.59;;;9.60;76.64
81397;BME280;70852;49.908;8.126;2023-12-29T09:09:53;100031.28;;;9.61;76.08
81397;BME280;70852;49.908;8.126;2023-12-29T09:12:18;100040.53;;;9.65;76.58
81397;BME280;70852;49.908;8.126;2023-12-29T09:14:44;100034.19;;;9.65;76.62
81397;BME280;70852;49.908;8.126;2023-12-29T09:17:13;100032.25;;;9.65;76.69
81397;BME280;70852;49.908;8.126;2023-12-29T09:19:39;100032.09;;;9.62;76.71
81397;BME280;70852;49.908;8.126;2023-12-29T09:22:04;100022.72;;;9.63;77.06
81397;BME280;70852;49.908;8.126;2023-12-29T09:24:29;100019.59;;;9.64;76.86
81397;BME280;70852;49.908;8.126;2023-12-29T09:26:55;100026.31;;;9.72;76.52
81397;BME280;70852;49.908;8.126;2023-12-29T09:29:20;100038.91;;;9.64;76.85
81397;BME280;70852;49.908;8.126;2023-12-29T09:31:45;100028.53;;;9.61;77.35
81397;BME280;70852;49.908;8.126;2023-12-29T09:34:10;100037.31;;;9.63;77.12
81397;BME280;70852;49.908;8.126;2023-12-29T09:36:36;100034.19;;;9.65;77.31
81397;BME280;70852;49.908;8.126;2023-12-29T09:39:01;100034.56;;;9.72;77.18
81397;BME280;70852;49.908;8.126;2023-12-29T09:41:31;100034.56;;;9.72;77.98
81397;BME280;70852;49.908;8.126;2023-12-29T09:44:01;100027.94;;;9.81;76.74
81397;BME280;70852;49.908;8.126;2023-12-29T09:46:32;100031.06;;;9.97;76.14
81397;BME280;70852;49.908;8.126;2023-12-29T09:48:59;100034.81;;;10.10;75.79
81397;BME280;70852;49.908;8.126;2023-12-29T09:51:27;100041.47;;;10.00;76.10
81397;BME280;70852;49.908;8.126;2023-12-29T09:53:53;100039.69;;;10.04;76.15
81397;BME280;70852;49.908;8.126;2023-12-29T09:56:19;100050.22;;;9.94;77.00
81397;BME280;70852;49.908;8.126;2023-12-29T09:58:47;100044.84;;;9.88;77.90
81397;BME280;70852;49.908;8.126;2023-12-29T10:01:13;100044.69;;;9.85;77.40
81397;BME280;70852;49.908;8.126;2023-12-29T10:03:42;100063.63;;;9.86;77.00
81397;BME280;70852;49.908;8.126;2023-12-29T10:06:07;100062.00;;;9.85;77.31
81397;BME280;70852;49.908;8.126;2023-12-29T10:08:37;100056.34;;;9.82;78.05
81397;BME280;70852;49.908;8.126;2023-12-29T10:11:04;100055.22;;;9.83;77.18
81397;BME280;70852;49.908;8.126;2023-12-29T10:13:33;100057.47;;;9.81;77.07
81397;BME280;70852;49.908;8.126;2023-12-29T10:16:13;100046.44;;;9.81;77.41
81397;BME280;70852;49.908;8.126;2023-12-29T10:18:46;100053.91;;;9.80;77.10
81397;BME280;70852;49.908;8.126;2023-12-29T10:21:29;100045.75;;;9.75;78.05
81397;BME280;70852;49.908;8.126;2023-12-29T10:24:07;100063.81;;;9.81;77.17
81397;BME280;70852;49.908;8.126;2023-12-29T10:26:35;100048.06;;;9.82;77.21
81397;BME280;70852;49.908;8.126;2023-12-29T10:29:04;100042.25;;;9.83;77.66
81397;BME280;70852;49.908;8.126;2023-12-29T10:31:30;100045.81;;;9.84;77.24
81397;BME280;70852;49.908;8.126;2023-12-29T10:34:21;100056.03;;;9.83;77.51
81397;BME280;70852;49.908;8.126;2023-12-29T10:36:56;100057.78;;;9.79;77.31
81397;BME280;70852;49.908;8.126;2023-12-29T10:39:24;100048.06;;;9.82;77.00
81397;BME280;70852;49.908;8.126;2023-12-29T10:41:50;100053.59;;;9.82;77.55
81397;BME280;70852;49.908;8.126;2023-12-29T10:44:16;100055.22;;;9.83;76.66
81397;BME280;70852;49.908;8.126;2023-12-29T10:46:43;100055.22;;;9.83;76.83
81397;BME280;70852;49.908;8.126;2023-12-29T10:49:12;100054.22;;;9.79;77.35
81397;BME280;70852;49.908;8.126;2023-12-29T10:51:39;100042.25;;;9.83;77.08
81397;BME280;70852;49.908;8.126;2023-12-29T10:54:04;100050.66;;;9.87;76.87
81397;BME280;70852;49.908;8.126;2023-12-29T10:56:30;100042.56;;;9.90;76.44
81397;BME280;70852;49.908;8.126;2023-12-29T10:59:03;100037.88;;;9.91;76.36
81397;BME280;70852;49.908;8.126;2023-12-29T11:01:33;100035.44;;;9.98;76.33
81397;BME280;70852;49.908;8.126;2023-12-29T11:04:06;100035.13;;;10.08;74.24
81397;BME280;70852;49.908;8.126;2023-12-29T11:06:44;100035.81;;;10.14;74.78
81397;BME280;70852;49.908;8.126;2023-12-29T11:09:13;100030.28;;;10.14;74.82
81397;BME280;70852;49.908;8.126;2023-12-29T11:11:38;100033.06;;;10.14;74.12
81397;BME280;70852;49.908;8.126;2023-12-29T11:14:09;100035.81;;;10.14;74.04
81397;BME280;70852;49.908;8.126;2023-12-29T11:16:37;100037.78;;;10.22;74.58
81397;BME280;70852;49.908;8.126;2023-12-29T11:19:07;100037.44;;;10.15;74.88
81397;BME280;70852;49.908;8.126;2023-12-29T11:21:35;100044.22;;;10.09;75.47
81397;BME280;70852;49.908;8.126;2023-12-29T11:24:03;100053.97;;;10.06;75.64
81397;BME280;70852;49.908;8.126;2023-12-29T11:26:29;100057.88;;;10.05;75.49
81397;BME280;70852;49.908;8.126;2023-12-29T11:28:54;100053.97;;;10.06;75.36
81397;BME280;70852;49.908;8.126;2023-12-29T11:31:22;100049.59;;;10.05;75.93
81397;BME280;70852;49.908;8.126;2023-12-29T11:34:05;100052.00;;;9.98;76.01
81397;BME280;70852;49.908;8.126;2023-12-29T11:36:36;100062.56;;;10.05;76.35
81397;BME280;70852;49.908;8.126;2023-12-29T11:39:21;100064.84;;;10.03;76.49
81397;BME280;70852;49.908;8.126;2023-12-29T11:44:26;100056.06;;;10.01;76.46
81397;BME280;70852;49.908;8.126;2023-12-29T11:46:58;100060.59;;;9.97;76.90
81397;BME280;70852;49.908;8.126;2023-12-29T11:49:26;100044.03;;;9.97;77.25
81397;BME280;70852;49.908;8.126;2023-12-29T11:51:52;100044.72;;;10.02;76.96
81397;BME280;70852;49.908;8.126;2023-12-29T11:54:27;100043.91;;;10.02;77.30
81397;BME280;70852;49.908;8.126;2023-12-29T11:56:53;100037.88;;;10.00;76.97
81397;BME280;70852;49.908;8.126;2023-12-29T11:59:20;100046.34;;;10.03;76.64
81397;BME280;70852;49.908;8.126;2023-12-29T12:01:51;100038.06;;;10.03;76.78
81397;BME280;70852;49.908;8.126;2023-12-29T12:04:42;100022.81;;;10.06;77.08
81397;BME280;70852;49.908;8.126;2023-12-29T12:07:13;100025.72;;;10.09;76.87
81397;BME280;70852;49.908;8.126;2023-12-29T12:09:39;100026.44;;;10.23;76.84
81397;BME280;70852;49.908;8.126;2023-12-29T12:12:07;100025.63;;;10.32;75.54
81397;BME280;70852;49.908;8.126;2023-12-29T12:17:10;100030.50;;;10.43;76.54
81397;BME280;70852;49.908;8.126;2023-12-29T12:19:38;100013.31;;;10.38;76.41
81397;BME280;70852;49.908;8.126;2023-12-29T12:22:06;100021.09;;;10.44;75.58
81397;BME280;70852;49.908;8.126;2023-12-29T12:24:35;100015.25;;;10.46;75.59
81397;BME280;70852;49.908;8.126;2023-12-29T12:27:01;100016.19;;;10.50;75.34
81397;BME280;70852;49.908;8.126;2023-12-29T12:29:29;99993.78;;;10.51;75.43
81397;BME280;70852;49.908;8.126;2023-12-29T12:31:55;100003.56;;;10.57;75.06
81397;BME280;70852;49.908;8.126;2023-12-29T12:34:22;99996.53;;;10.60;75.04
81397;BME280;70852;49.908;8.126;2023-12-29T12:36:53;100003.72;;;10.70;75.34
81397;BME280;70852;49.908;8.126;2023-12-29T12:39:24;99999.78;;;10.62;75.15
81397;BME280;70852;49.908;8.126;2023-12-29T12:41:49;99997.72;;;10.59;75.38
81397;BME280;70852;49.908;8.126;2023-12-29T12:44:17;100003.72;;;10.44;75.72
81397;BME280;70852;49.908;8.126;2023-12-29T12:46:50;100003.84;;;10.39;75.29
81397;BME280;70852;49.908;8.126;2023-12-29T12:49:18;99993.00;;;10.42;75.62
81397;BME280;70852;49.908;8.126;2023-12-29T12:51:44;99989.75;;;10.32;75.93
81397;BME280;70852;49.908;8.126;2023-12-29T12:54:10;99988.28;;;10.25;76.33
81397;BME280;70852;49.908;8.126;2023-12-29T12:56:41;99984.84;;;10.28;76.33
81397;BME280;70852;49.908;8.126;2023-12-29T12:59:10;99989.75;;;10.23;76.88
81397;BME280;70852;49.908;8.126;2023-12-29T13:01:36;99985.03;;;10.23;76.00
81397;BME280;70852;49.908;8.126;2023-12-29T13:04:05;99987.44;;;10.16;77.37
81397;BME280;70852;49.908;8.126;2023-12-29T13:06:39;99974.97;;;10.36;76.61
81397;BME280;70852;49.908;8.126;2023-12-29T13:09:08;99981.63;;;10.35;76.89
81397;BME280;70852;49.908;8.126;2023-12-29T13:11:38;99972.88;;;10.33;77.19